Time;durP1;ratioP1;P1;durP2;ratioP2;P2;SDS_P1;SDS_P2;PMS_P1;PMS_P2;Temp;Humidity;BMP_temperature;BMP_pressure;BME280_temperature;BME280_humidity;BME280_pressure;Samples;Min_cycle;Max_cycle;Signal;HPM_P1;HPM_P2
2022/10/25 00:00:20;;;;;;;8.43;3.75;;;;;;;11.49;70.99;99681.16;4901987;29;20518;-92
2022/10/25 00:02:46;;;;;;;7.47;3.42;;;;;;;11.67;70.76;99697.94;4902765;29;20091;-93
2022/10/25 00:05:13;;;;;;;7.47;3.47;;;;;;;11.61;71.02;99697.09;4901199;29;20166;-92
2022/10/25 00:07:39;;;;;;;6.93;3.60;;;;;;;11.48;71.30;99684.94;4914449;29;20550;-92
2022/10/25 00:10:06;;;;;;;6.60;3.85;;;;;;;11.47;71.77;99694.09;4884573;29;20035;-92
2022/10/25 00:12:31;;;;;;;8.63;3.65;;;;;;;11.37;72.13;99687.88;4900988;29;20071;-92
2022/10/25 00:15:00;;;;;;;10.20;3.75;;;;;;;11.47;71.39;99683.31;4885023;29;20106;-92
2022/10/25 00:17:25;;;;;;;8.60;3.85;;;;;;;11.62;71.10;99687.13;4904289;29;20035;-90
2022/10/25 00:19:51;;;;;;;8.68;3.70;;;;;;;11.49;71.27;99678.47;4896544;28;20038;-93
2022/10/25 00:22:17;;;;;;;9.40;4.05;;;;;;;11.51;71.49;99694.38;4935256;28;20477;-92
2022/10/25 00:24:43;;;;;;;8.15;3.80;;;;;;;11.26;72.08;99668.97;4951658;28;20027;-91
2022/10/25 00:27:11;;;;;;;5.80;3.65;;;;;;;11.30;72.11;99686.25;4949131;28;20035;-93
2022/10/25 00:29:37;;;;;;;9.38;4.10;;;;;;;11.32;72.05;99684.09;4951387;28;20027;-91
2022/10/25 00:32:03;;;;;;;6.60;3.55;;;;;;;11.17;72.15;99673.28;4966861;28;20018;-92
2022/10/25 00:34:29;;;;;;;9.65;4.15;;;;;;;11.17;72.52;99673.28;4949450;28;20069;-92
2022/10/25 00:36:54;;;;;;;7.15;3.90;;;;;;;11.23;72.29;99687.59;4954108;28;20042;-92
2022/10/25 00:39:20;;;;;;;7.15;3.58;;;;;;;11.16;72.27;99676.22;4933067;28;20034;-91
2022/10/25 00:41:46;;;;;;;8.15;3.40;;;;;;;11.05;72.67;99668.09;4943111;28;20027;-91
2022/10/25 00:44:45;;;;;;;7.38;3.75;;;;;;;11.03;73.44;99688.31;4928844;28;20055;-92
2022/10/25 00:47:32;;;;;;;7.00;3.90;;;;;;;11.07;73.14;99694.78;4948833;28;20042;-92
2022/10/25 00:50:22;;;;;;;9.45;3.70;;;;;;;11.18;72.56;99690.25;4940712;28;20101;-91
2022/10/25 00:52:49;;;;;;;7.38;3.67;;;;;;;11.23;71.86;99669.53;4949285;28;20093;-92
2022/10/25 00:55:16;;;;;;;7.65;4.15;;;;;;;11.11;72.35;99656.28;4919539;28;20130;-92
2022/10/25 00:57:46;;;;;;;7.97;4.28;;;;;;;11.07;72.54;99665.97;4958064;28;20413;-92
2022/10/25 01:00:12;;;;;;;10.55;3.97;;;;;;;11.09;72.67;99673.78;4925095;29;20178;-92
2022/10/25 01:02:38;;;;;;;8.60;3.70;;;;;;;11.01;72.50;99655.44;4924194;29;20548;-92
2022/10/25 01:05:07;;;;;;;6.32;4.30;;;;;;;11.19;72.13;99673.00;4924266;29;20027;-91
2022/10/25 01:07:35;;;;;;;10.73;4.20;;;;;;;11.02;72.38;99659.72;4925006;29;20035;-91
2022/10/25 01:10:01;;;;;;;6.82;3.78;;;;;;;11.00;72.52;99654.63;4940087;29;20110;-92
2022/10/25 01:12:28;;;;;;;10.18;4.82;;;;;;;11.10;72.38;99668.13;4940792;28;20022;-92
2022/10/25 01:14:57;;;;;;;9.80;5.03;;;;;;;11.10;72.58;99676.22;4940185;28;20027;-92
2022/10/25 01:17:35;;;;;;;15.10;4.60;;;;;;;11.03;72.99;99664.88;4942929;28;20039;-92
2022/10/25 01:20:38;;;;;;;7.75;4.28;;;;;;;11.06;73.16;99668.91;4969777;28;20045;-92
2022/10/25 01:23:19;;;;;;;9.35;4.47;;;;;;;10.98;72.99;99658.63;4943215;28;20122;-92
2022/10/25 01:26:06;;;;;;;9.77;4.57;;;;;;;10.95;73.06;99659.19;4942527;28;20043;-92
2022/10/25 01:29:08;;;;;;;10.02;4.43;;;;;;;10.95;72.54;99668.06;4961542;28;20029;-91
2022/10/25 01:31:43;;;;;;;11.13;4.78;;;;;;;10.95;72.04;99651.91;4937282;28;20039;-93
2022/10/25 01:34:33;;;;;;;12.32;5.22;;;;;;;10.86;73.03;99651.59;4917869;28;20428;-91
2022/10/25 01:37:15;;;;;;;11.32;4.95;;;;;;;10.79;73.05;99652.91;4922068;28;20035;-92
2022/10/25 01:39:43;;;;;;;11.50;4.80;;;;;;;10.69;73.08;99641.03;4928604;28;20086;-92
2022/10/25 01:42:28;;;;;;;9.88;5.40;;;;;;;11.00;72.25;99654.63;4922302;28;20110;-92
2022/10/25 01:45:09;;;;;;;11.30;5.63;;;;;;;10.94;72.55;99646.78;4963796;28;21039;-91
2022/10/25 01:47:51;;;;;;;10.05;5.88;;;;;;;10.81;72.80;99629.22;4955921;28;20537;-93
2022/10/25 01:50:20;;;;;;;;;;;;;;;10.89;72.82;99648.41;4963556;28;20031;-92
2022/10/25 01:52:46;;;;;;;8.18;5.43;;;;;;;10.60;73.10;99629.13;4949059;28;19914;-92
2022/10/25 01:55:14;;;;;;;11.68;5.72;;;;;;;10.70;73.08;99637.25;4979362;28;20498;-92
2022/10/25 01:58:14;;;;;;;10.00;5.57;;;;;;;10.88;72.68;99640.56;4949243;28;20049;-92
2022/10/25 02:01:02;;;;;;;12.55;5.85;;;;;;;10.91;72.20;99623.88;4927946;29;20043;-91
2022/10/25 02:03:32;;;;;;;16.25;6.30;;;;;;;10.87;72.66;99626.28;4935748;28;20128;-92
2022/10/25 02:06:13;;;;;;;11.55;5.70;;;;;;;10.97;72.65;99635.47;4935224;28;20022;-92
2022/10/25 02:08:55;;;;;;;10.27;5.82;;;;;;;10.98;72.43;99637.91;4973287;28;20027;-92
2022/10/25 02:11:25;;;;;;;13.48;5.80;;;;;;;10.79;72.74;99623.28;4952312;28;20037;-91
2022/10/25 02:13:59;;;;;;;12.05;6.10;;;;;;;10.82;72.87;99641.63;4961621;28;20030;-91
2022/10/25 02:16:28;;;;;;;13.10;6.40;;;;;;;10.76;73.19;99634.59;4994840;28;20109;-92
2022/10/25 02:18:58;;;;;;;10.02;6.03;;;;;;;10.87;72.16;99623.59;4959831;28;20163;-92
2022/10/25 02:21:23;;;;;;;9.35;5.30;;;;;;;10.98;72.07;99632.53;4952898;28;20565;-92
2022/10/25 02:23:50;;;;;;;11.13;5.45;;;;;;;11.00;72.01;99627.69;4953553;28;20177;-91
2022/10/25 02:26:16;;;;;;;8.00;5.32;;;;;;;10.95;72.03;99611.47;4960190;28;20553;-91
2022/10/25 02:28:42;;;;;;;12.23;6.43;;;;;;;10.96;71.73;99609.59;4924213;29;20045;-92
2022/10/25 02:31:13;;;;;;;9.38;5.78;;;;;;;11.04;71.93;99626.09;4922401;29;20027;-92
2022/10/25 02:33:42;;;;;;;11.35;5.35;;;;;;;10.99;72.16;99623.34;4955693;29;20411;-92
2022/10/25 02:36:23;;;;;;;9.25;5.38;;;;;;;10.87;72.29;99617.38;4933210;28;20026;-92
2022/10/25 02:38:49;;;;;;;8.68;5.60;;;;;;;10.75;72.74;99614.94;4950766;28;20065;-92
2022/10/25 02:41:16;;;;;;;10.48;5.47;;;;;;;10.71;73.05;99619.22;4962235;28;20486;-93
2022/10/25 02:43:42;;;;;;;11.20;5.82;;;;;;;10.94;72.31;99620.66;4942372;29;20490;-91
2022/10/25 02:46:10;;;;;;;11.00;5.80;;;;;;;10.85;72.24;99598.81;4943825;28;20069;-92
2022/10/25 02:48:37;;;;;;;13.85;5.47;;;;;;;11.10;71.83;99633.09;4958491;28;20045;-92
2022/10/25 02:51:05;;;;;;;12.55;6.03;;;;;;;10.99;71.62;99591.03;4937615;28;20026;-92
2022/10/25 02:53:31;;;;;;;9.38;5.60;;;;;;;11.01;71.97;99601.53;4959383;28;20134;-92
2022/10/25 02:56:01;;;;;;;11.68;5.28;;;;;;;10.91;71.74;99600.44;4959000;28;20034;-92
2022/10/25 02:58:29;;;;;;;12.82;5.38;;;;;;;10.87;71.71;99604.75;4945374;28;20038;-92
2022/10/25 03:00:55;;;;;;;9.18;5.30;;;;;;;10.84;71.45;99597.19;4964399;28;20031;-92
2022/10/25 03:03:21;;;;;;;8.55;5.07;;;;;;;10.78;72.07;99600.94;4945468;28;20572;-92
2022/10/25 03:05:50;;;;;;;10.00;5.43;;;;;;;10.88;72.26;99619.81;4959449;28;20118;-92
2022/10/25 03:08:16;;;;;;;12.52;6.35;;;;;;;10.77;72.61;99598.50;4964603;28;20031;-91
2022/10/25 03:10:41;;;;;;;12.02;5.10;;;;;;;10.83;72.41;99616.28;4954532;28;20111;-91
2022/10/25 03:13:07;;;;;;;11.35;5.80;;;;;;;10.77;72.60;99620.88;4948719;28;20477;-91
2022/10/25 03:15:34;;;;;;;8.80;5.63;;;;;;;10.69;73.26;99618.69;4939951;28;20089;-92
2022/10/25 03:18:00;;;;;;;12.10;5.55;;;;;;;10.78;72.43;99613.59;4976264;28;20034;-92
2022/10/25 03:20:25;;;;;;;9.40;5.45;;;;;;;10.86;72.25;99615.78;4944390;28;20097;-92
2022/10/25 03:22:51;;;;;;;12.55;6.10;;;;;;;10.80;72.13;99593.41;4951741;28;20027;-91
2022/10/25 03:25:17;;;;;;;9.35;6.10;;;;;;;11.04;71.93;99623.38;4937320;29;20528;-92
2022/10/25 03:27:43;;;;;;;11.88;5.55;;;;;;;10.86;72.25;99605.00;4937092;29;20062;-92
2022/10/25 03:30:12;;;;;;;10.20;5.97;;;;;;;10.76;72.09;99602.28;4945014;28;20379;-92
2022/10/25 03:32:37;;;;;;;9.55;6.05;;;;;;;10.71;72.92;99606.56;4932679;28;20094;-92
2022/10/25 03:35:04;;;;;;;9.55;5.40;;;;;;;10.61;72.64;99593.06;4933021;28;20027;-92
2022/10/25 03:37:39;;;;;;;9.15;6.35;;;;;;;10.62;72.85;99604.63;4953443;28;20113;-92
2022/10/25 03:40:06;;;;;;;14.65;6.28;;;;;;;10.48;72.94;99597.06;4960669;28;20026;-92
2022/10/25 03:42:31;;;;;;;10.25;5.90;;;;;;;10.52;72.66;99583.84;4906331;28;1345973;-92
2022/10/25 03:44:57;;;;;;;12.00;6.30;;;;;;;10.54;72.68;99580.91;4937283;28;20042;-92
2022/10/25 03:47:23;;;;;;;11.15;6.28;;;;;;;10.49;72.63;99584.38;4940673;28;20113;-93
2022/10/25 03:49:51;;;;;;;15.00;5.53;;;;;;;10.33;73.10;99578.13;4936994;28;20125;-93
2022/10/25 03:52:19;;;;;;;11.98;6.05;;;;;;;10.34;73.36;99587.81;4952834;28;20034;-93
2022/10/25 03:54:45;;;;;;;12.25;8.73;;;;;;;10.32;73.47;99580.00;4939556;29;20607;-93
2022/10/25 03:57:12;;;;;;;11.80;6.25;;;;;;;10.35;73.88;99589.44;4926148;29;20035;-92
2022/10/25 03:59:40;;;;;;;16.10;6.22;;;;;;;10.38;73.48;99588.13;4926070;29;20389;-92
2022/10/25 04:02:06;;;;;;;12.32;6.32;;;;;;;10.40;73.13;99567.94;4941714;29;20480;-92
2022/10/25 04:04:34;;;;;;;14.40;6.28;;;;;;;10.51;72.81;99576.88;4941463;29;20497;-93
2022/10/25 04:07:00;;;;;;;9.80;5.75;;;;;;;10.42;72.91;99565.78;4925097;29;20042;-92
2022/10/25 04:09:27;;;;;;;10.75;6.38;;;;;;;10.53;72.54;99580.09;4925593;29;20043;-93
2022/10/25 04:11:56;;;;;;;14.85;6.43;;;;;;;10.40;73.20;99573.31;4926082;29;20019;-92
2022/10/25 04:14:23;;;;;;;12.70;6.38;;;;;;;10.37;73.61;99571.13;4925067;29;20039;-93
2022/10/25 04:16:49;;;;;;;13.23;6.93;;;;;;;10.35;73.71;99570.59;4925518;29;20030;-92
2022/10/25 04:19:17;;;;;;;11.15;6.68;;;;;;;10.45;73.21;99575.22;4907890;29;20510;-89
2022/10/25 04:21:44;;;;;;;13.85;7.93;;;;;;;10.30;73.49;99571.38;4924445;29;20039;-94
2022/10/25 04:24:09;;;;;;;17.73;9.23;;;;;;;10.29;73.52;99587.75;4941423;29;20119;-92
2022/10/25 04:26:36;;;;;;;15.10;7.40;;;;;;;10.18;73.37;99565.38;4926698;29;20027;-93
2022/10/25 04:29:02;;;;;;;14.32;8.48;;;;;;;10.26;73.33;99575.63;4940361;29;20071;-92
2022/10/25 04:31:28;;;;;;;17.23;8.00;;;;;;;10.23;73.23;99576.16;4909222;29;20023;-92
2022/10/25 04:33:56;;;;;;;13.48;7.57;;;;;;;10.27;73.54;99571.06;4926512;28;20553;-92
2022/10/25 04:36:26;;;;;;;16.42;7.03;;;;;;;10.26;73.13;99590.97;4917379;28;20039;-93
2022/10/25 04:38:54;;;;;;;17.35;8.27;;;;;;;10.12;73.30;99571.78;4924810;28;20067;-92
2022/10/25 04:41:28;;;;;;;15.85;8.10;;;;;;;10.04;73.36;99559.66;4954010;28;20034;-92
2022/10/25 04:43:55;;;;;;;13.35;6.95;;;;;;;10.05;73.74;99565.84;4976020;28;20051;-91
2022/10/25 04:46:23;;;;;;;12.90;7.28;;;;;;;9.99;73.60;99559.59;4961143;28;20034;-92
2022/10/25 04:48:49;;;;;;;13.45;6.63;;;;;;;10.02;73.45;99561.78;4928421;28;20034;-95
2022/10/25 04:51:14;;;;;;;15.48;8.10;;;;;;;10.12;73.75;99579.84;4943689;28;20026;-93
2022/10/25 04:53:42;;;;;;;12.05;7.43;;;;;;;10.03;73.74;99566.09;4944076;28;20046;-93
2022/10/25 04:56:11;;;;;;;16.23;7.50;;;;;;;10.04;73.67;99562.34;4976665;28;20097;-95
2022/10/25 04:58:52;;;;;;;21.75;7.30;;;;;;;9.99;73.43;99564.19;4964195;28;20031;-96
2022/10/25 05:01:20;;;;;;;19.70;7.53;;;;;;;10.00;73.54;99563.09;4979071;28;20022;-96
2022/10/25 05:03:51;;;;;;;14.13;7.07;;;;;;;10.02;73.40;99569.88;4980409;28;20023;-95
2022/10/25 05:06:25;;;;;;;18.77;7.93;;;;;;;9.99;73.47;99569.56;4950776;28;20026;-96
2022/10/25 05:09:00;;;;;;;18.00;9.88;;;;;;;10.11;73.30;99570.97;4996676;28;20121;-96
2022/10/25 05:11:29;;;;;;;15.95;8.23;;;;;;;10.14;73.97;99585.78;4965630;28;20045;-96
2022/10/25 05:14:05;;;;;;;17.27;7.53;;;;;;;10.10;73.29;99573.94;4960548;28;20007;-96
2022/10/25 05:16:42;;;;;;;14.63;7.30;;;;;;;10.09;73.62;99586.56;4952769;28;20282;-95
2022/10/25 05:19:32;;;;;;;14.20;7.80;;;;;;;9.94;73.93;99574.91;4967446;28;20039;-95
2022/10/25 05:24:59;;;;;;;16.52;7.90;;;;;;;10.24;73.56;99606.56;5670761;23;20065;-96
2022/10/25 05:27:27;;;;;;;26.77;15.27;;;;;;;10.21;73.94;99610.59;4982850;28;20030;-95
2022/10/25 05:30:01;;;;;;;24.73;11.02;;;;;;;10.18;73.40;99588.78;4979807;23;20055;-96
2022/10/25 05:38:57;;;;;;;21.30;9.98;;;;;;;10.29;73.35;99591.31;5075981;23;20047;-96
2022/10/25 05:44:25;;;;;;;22.58;10.80;;;;;;;10.58;73.53;99611.63;5214406;23;20065;-94
2022/10/25 05:46:54;;;;;;;26.13;10.05;;;;;;;10.59;73.42;99600.59;4922056;29;20027;-96
2022/10/25 05:49:26;;;;;;;28.02;13.13;;;;;;;10.67;72.79;99610.84;4922091;29;20035;-96
2022/10/25 05:51:52;;;;;;;21.08;12.88;;;;;;;10.90;72.79;99627.66;4955319;29;20026;-96
2022/10/25 05:57:50;;;;;;;19.92;8.70;;;;;;;11.04;71.55;99618.00;5073875;23;20289;-95
2022/10/25 06:00:17;;;;;;;21.20;11.07;;;;;;;11.16;71.17;99625.81;4964374;28;20061;-96
2022/10/25 06:02:49;;;;;;;17.83;9.73;;;;;;;11.41;70.56;99637.72;4949721;28;20027;-96
2022/10/25 06:05:20;;;;;;;29.70;13.23;;;;;;;11.25;70.12;99610.75;4952126;28;20066;-94
2022/10/25 06:07:47;;;;;;;22.55;9.93;;;;;;;11.50;70.14;99630.75;4947838;28;20062;-94
2022/10/25 06:10:15;;;;;;;16.25;9.73;;;;;;;11.56;70.18;99623.47;4953719;28;20071;-92
2022/10/25 06:12:41;;;;;;;29.88;17.25;;;;;;;11.63;69.64;99622.13;4950018;28;20093;-94
2022/10/25 06:15:11;;;;;;;19.77;9.75;;;;;;;11.69;69.77;99636.44;4956780;28;20026;-92
2022/10/25 06:17:37;;;;;;;23.70;10.27;;;;;;;11.63;69.39;99630.22;4938333;28;20031;-93
2022/10/25 06:20:31;;;;;;;23.52;10.35;;;;;;;11.70;69.13;99619.97;4930096;29;20069;-95
2022/10/25 06:23:01;;;;;;;33.15;13.13;;;;;;;11.90;68.97;99632.66;4958353;29;20490;-94
2022/10/25 06:25:26;;;;;;;65.63;15.23;;;;;;;11.94;69.14;99630.25;4954632;28;20515;-95
2022/10/25 06:27:54;;;;;;;47.65;12.45;;;;;;;12.06;68.36;99628.09;4939275;28;20022;-92
2022/10/25 06:30:20;;;;;;;132.43;19.55;;;;;;;12.17;67.91;99623.47;4950969;28;20564;-91
2022/10/25 06:32:45;;;;;;;56.55;13.48;;;;;;;12.24;67.96;99629.41;4950047;28;20504;-92
2022/10/25 06:35:11;;;;;;;22.27;10.43;;;;;;;12.51;67.54;99639.03;4951876;28;20027;-94
2022/10/25 06:37:49;;;;;;;28.92;12.02;;;;;;;12.46;67.35;99620.16;4941876;28;20559;-96
2022/10/25 06:40:16;;;;;;;25.67;11.55;;;;;;;12.77;67.56;99660.59;4955367;29;20023;-93
2022/10/25 06:42:42;;;;;;;21.85;10.77;;;;;;;12.67;67.34;99639.81;4933407;28;20449;-92
2022/10/25 06:45:21;;;;;;;22.85;11.75;;;;;;;12.78;67.05;99624.38;4948830;28;20462;-96
2022/10/25 06:47:50;;;;;;;18.25;10.82;;;;;;;12.95;67.00;99641.06;4994215;28;20026;-95
2022/10/25 06:50:16;;;;;;;31.95;9.80;;;;;;;12.93;67.05;99614.31;4977614;28;20018;-93
2022/10/25 06:53:12;;;;;;;19.10;11.25;;;;;;;13.14;66.58;99625.81;4944966;28;20121;-94
2022/10/25 06:55:38;;;;;;;45.67;11.55;;;;;;;13.39;66.26;99643.00;4902006;29;20040;-95
2022/10/25 06:58:04;;;;;;;23.60;9.63;;;;;;;13.43;65.34;99618.94;4883602;29;20060;-93
2022/10/25 07:00:30;;;;;;;16.15;10.38;;;;;;;13.64;64.43;99616.88;4869049;29;20522;-94
2022/10/25 07:02:59;;;;;;;22.23;9.23;;;;;;;13.73;64.47;99609.75;4879482;29;20146;-95
2022/10/25 07:05:24;;;;;;;24.45;9.48;;;;;;;13.92;63.93;99618.81;4904574;29;20491;-94
2022/10/25 07:07:52;;;;;;;14.85;7.30;;;;;;;14.15;64.04;99628.06;4895298;29;20044;-96
2022/10/25 07:10:21;;;;;;;15.80;7.57;;;;;;;14.27;63.55;99624.94;4902075;29;20028;-96
2022/10/25 07:12:46;;;;;;;14.05;7.65;;;;;;;14.38;62.73;99609.41;4885897;29;20048;-93
2022/10/25 07:15:14;;;;;;;14.18;6.35;;;;;;;14.72;62.11;99631.00;4884424;29;20103;-95
2022/10/25 07:17:39;;;;;;;23.00;9.63;;;;;;;14.79;62.48;99621.69;4870275;29;20051;-94
2022/10/25 07:20:06;;;;;;;20.50;8.25;;;;;;;15.03;61.62;99621.69;4902977;29;20056;-93
2022/10/25 07:22:32;;;;;;;15.75;7.47;;;;;;;15.22;61.31;99618.97;4923929;29;20034;-95
2022/10/25 07:24:59;;;;;;;19.35;6.70;;;;;;;15.33;60.62;99612.28;4925110;29;20075;-93
2022/10/25 07:27:30;;;;;;;15.70;6.55;;;;;;;15.52;60.09;99612.25;4928751;29;20027;-95
2022/10/25 07:30:00;;;;;;;12.98;5.97;;;;;;;15.86;58.99;99635.66;4929288;29;20031;-95
2022/10/25 07:32:26;;;;;;;15.23;8.02;;;;;;;15.88;58.23;99614.44;4931917;29;20031;-93
2022/10/25 07:34:54;;;;;;;14.45;5.75;;;;;;;15.91;58.12;99602.97;4928854;29;20039;-95
2022/10/25 07:37:20;;;;;;;21.70;8.23;;;;;;;16.15;57.69;99617.22;4943213;29;20477;-95
2022/10/25 07:39:47;;;;;;;15.77;6.85;;;;;;;16.18;57.68;99599.50;4927241;29;20038;-96
2022/10/25 07:42:17;;;;;;;88.00;47.33;;;;;;;16.37;57.58;99621.16;4959870;29;20051;-95
2022/10/25 07:44:47;;;;;;;44.67;24.00;;;;;;;16.39;57.82;99615.44;4912990;29;20033;-93
2022/10/25 07:47:15;;;;;;;11.15;6.55;;;;;;;16.39;57.41;99593.69;5024217;23;20433;-95
2022/10/25 07:49:47;;;;;;;19.05;6.22;;;;;;;16.56;56.88;99605.56;4929683;29;20585;-95
2022/10/25 07:52:28;;;;;;;14.30;6.03;;;;;;;16.66;56.44;99599.09;4924900;29;20091;-96
2022/10/25 07:55:15;;;;;;;18.42;6.70;;;;;;;16.90;55.97;99598.13;4952645;29;20027;-96
2022/10/25 07:58:43;;;;;;;18.92;9.52;;;;;;;17.14;55.96;99622.34;4929906;29;20031;-95
2022/10/25 08:01:10;;;;;;;18.05;6.47;;;;;;;17.12;55.29;99614.50;4896059;29;20115;-95
2022/10/25 08:03:36;;;;;;;15.45;6.93;;;;;;;17.21;55.11;99592.00;4908497;29;20122;-94
2022/10/25 08:14:42;;;;;;;15.32;6.63;;;;;;;17.40;55.61;99594.56;4960488;28;20098;-96
2022/10/25 08:17:10;;;;;;;20.45;8.57;;;;;;;17.46;54.66;99594.13;4955794;28;20062;-94
2022/10/25 08:19:36;;;;;;;16.17;6.65;;;;;;;17.48;54.38;99582.94;4942754;28;20038;-93
2022/10/25 08:22:12;;;;;;;19.20;9.80;;;;;;;17.65;54.63;99595.84;4966564;28;20101;-96
2022/10/25 08:24:38;;;;;;;24.75;14.05;;;;;;;17.69;54.79;99583.22;4948914;28;20018;-94
2022/10/25 08:27:06;;;;;;;22.25;7.93;;;;;;;17.77;54.78;99591.44;4965774;28;20022;-94
2022/10/25 08:29:32;;;;;;;19.88;9.45;;;;;;;17.85;54.87;99576.31;4966433;28;20037;-95
2022/10/25 08:32:03;;;;;;;15.95;6.93;;;;;;;17.90;54.62;99569.94;4948772;28;20027;-94
2022/10/25 08:34:28;;;;;;;16.25;8.32;;;;;;;17.94;54.01;99568.97;4951418;28;20026;-92
2022/10/25 08:36:54;;;;;;;25.13;8.07;;;;;;;18.04;53.75;99564.41;4966019;28;20117;-96
2022/10/25 08:39:22;;;;;;;16.35;8.60;;;;;;;18.22;53.50;99571.53;4964903;28;20492;-96
2022/10/25 08:42:01;;;;;;;22.92;10.52;;;;;;;18.35;53.36;99567.88;4950542;28;20027;-94
2022/10/25 08:44:46;;;;;;;18.73;7.22;;;;;;;18.39;52.45;99562.63;4961287;28;20503;-93
2022/10/25 08:47:28;;;;;;;10.85;6.10;;;;;;;18.62;52.32;99574.22;4982968;28;20071;-96
2022/10/25 08:50:06;;;;;;;17.00;6.60;;;;;;;18.70;51.86;99591.75;4986106;28;20041;-95
2022/10/25 08:52:53;;;;;;;20.55;6.78;;;;;;;18.73;52.05;99582.91;4982634;28;20019;-94
2022/10/25 08:55:28;;;;;;;29.23;14.10;;;;;;;18.66;51.78;99558.03;4966060;28;20030;-95
2022/10/25 08:58:02;;;;;;;33.33;14.38;;;;;;;18.75;52.53;99556.13;4965526;28;20034;-96
2022/10/25 09:01:01;;;;;;;19.60;8.60;;;;;;;18.89;52.88;99556.00;4958660;28;20060;-93
2022/10/25 09:03:37;;;;;;;15.10;7.05;;;;;;;18.94;52.23;99547.66;4985356;28;20050;-96
2022/10/25 09:06:37;;;;;;;13.35;6.88;;;;;;;19.03;52.03;99544.94;4985326;28;20065;-95
2022/10/25 09:09:24;;;;;;;14.07;6.60;;;;;;;19.11;52.27;99546.84;4941529;28;20102;-95
2022/10/25 09:12:25;;;;;;;19.63;6.45;;;;;;;19.34;52.08;99570.16;4951532;28;20156;-95
2022/10/25 09:15:10;;;;;;;16.65;5.35;;;;;;;19.44;51.85;99566.28;4888164;29;20096;-94
2022/10/25 09:18:02;;;;;;;19.55;6.63;;;;;;;19.35;51.66;99536.25;4970470;28;20027;-96
2022/10/25 09:20:54;;;;;;;12.43;4.53;;;;;;;19.47;50.13;99543.00;5142014;23;20497;-96
2022/10/25 09:23:32;;;;;;;12.52;5.65;;;;;;;19.67;50.04;99558.72;4952548;28;20066;-95
2022/10/25 09:26:30;;;;;;;16.10;5.22;;;;;;;19.85;49.43;99561.41;4930680;28;20026;-95
2022/10/25 09:29:47;;;;;;;9.45;4.45;;;;;;;19.82;48.15;99542.94;4970450;28;20125;-96
2022/10/25 09:43:42;;;;;;;15.82;5.85;;;;;;;20.42;47.82;99538.34;5000678;28;20050;-94
2022/10/25 09:49:06;;;;;;;11.52;4.20;;;;;;;20.66;45.74;99524.88;5009608;23;20224;-93
2022/10/25 09:51:38;;;;;;;11.70;4.63;;;;;;;20.75;46.08;99528.38;4956636;28;20068;-94
2022/10/25 09:54:16;;;;;;;14.77;4.72;;;;;;;20.97;46.04;99548.31;4934240;28;20610;-95
2022/10/25 09:56:48;;;;;;;13.85;4.53;;;;;;;20.99;45.29;99529.63;4953343;28;20065;-92
2022/10/25 09:59:17;;;;;;;15.52;4.13;;;;;;;21.18;44.78;99537.38;4950460;28;20101;-94
2022/10/25 10:01:45;;;;;;;11.82;3.08;;;;;;;21.35;43.39;99539.97;4936165;29;20031;-94
2022/10/25 10:04:35;;;;;;;10.02;3.30;;;;;;;21.45;42.61;99524.25;4940774;28;20026;-93
2022/10/25 10:07:22;;;;;;;13.27;3.83;;;;;;;21.58;42.37;99525.88;4957074;28;20023;-93
2022/10/25 10:13:20;;;;;;;10.25;3.08;;;;;;;21.88;40.51;99514.78;4940510;29;20148;-95
2022/10/25 10:15:59;;;;;;;10.00;2.80;;;;;;;22.03;40.76;99511.34;4915557;29;20036;-92
2022/10/25 10:18:29;;;;;;;7.72;2.60;;;;;;;22.15;39.13;99513.31;4888991;29;20032;-92
2022/10/25 10:21:00;;;;;;;9.27;2.80;;;;;;;22.40;39.40;99549.81;4886269;29;20084;-96
2022/10/25 10:23:36;;;;;;;14.75;2.85;;;;;;;22.38;39.39;99535.63;4899834;29;20070;-94
2022/10/25 10:26:22;;;;;;;10.32;2.35;;;;;;;22.40;36.52;99528.66;4903646;29;20036;-96
2022/10/25 10:29:32;;;;;;;9.20;2.67;;;;;;;22.51;36.73;99515.25;4882716;29;20044;-92
2022/10/25 10:32:51;;;;;;;8.52;2.90;;;;;;;22.58;36.04;99514.69;4893944;29;20043;-94
2022/10/25 10:45:33;;;;;;;11.75;2.92;;;;;;;22.86;36.11;99528.47;4947807;28;20023;-96
2022/10/25 10:48:27;;;;;;;9.52;2.50;;;;;;;22.73;36.15;99521.41;4971098;28;20127;-96
2022/10/25 11:02:17;;;;;;;;;;;;;;;;;;;;;
2022/10/25 11:04:58;;;;;;;14.63;3.67;;;;;;;22.83;35.82;99501.72;4901819;29;20088;-94
2022/10/25 11:07:37;;;;;;;10.85;2.38;;;;;;;22.91;35.08;99516.44;4874402;29;20024;-96
2022/10/25 11:11:10;;;;;;;12.65;2.63;;;;;;;23.18;34.42;99529.44;4971298;28;20077;-95
2022/10/25 11:13:21;;;;;;;12.52;2.95;;;;;;;23.09;34.68;99503.25;4970839;28;20042;-95
2022/10/25 11:16:29;;;;;;;;;;;;;;;;;;;;;
2022/10/25 11:19:10;;;;;;;10.65;2.42;;;;;;;23.32;34.91;99522.72;4979905;28;20127;-91
2022/10/25 11:21:45;;;;;;;11.00;2.40;;;;;;;23.45;34.29;99521.53;4963412;28;20085;-95
2022/10/25 11:24:48;;;;;;;28.65;3.78;;;;;;;23.53;33.94;99525.25;4969310;28;20034;-96
2022/10/25 11:27:54;;;;;;;8.48;2.30;;;;;;;23.55;33.80;99514.72;4969829;28;20054;-96
2022/10/25 11:33:54;;;;;;;22.70;5.30;;;;;;;23.57;34.18;99504.16;4988312;28;20033;-95
2022/10/25 11:36:49;;;;;;;10.52;3.30;;;;;;;23.60;34.30;99509.75;4956698;28;20448;-94
2022/10/25 11:39:50;;;;;;;10.75;2.88;;;;;;;23.64;33.78;99501.63;4948725;28;20026;-93
2022/10/25 11:42:44;;;;;;;9.60;2.85;;;;;;;23.81;34.02;99503.25;4979913;28;20050;-94
2022/10/25 11:45:53;;;;;;;11.07;2.65;;;;;;;23.74;33.71;99492.03;4967557;28;20070;-96
2022/10/25 11:52:14;;;;;;;10.93;2.65;;;;;;;23.97;33.59;99511.50;4912708;29;20039;-95
2022/10/25 11:54:49;;;;;;;6.75;2.15;;;;;;;23.96;33.54;99510.69;4882437;29;20036;-96
2022/10/25 11:58:01;;;;;;;15.02;2.85;;;;;;;23.93;33.17;99481.16;4892183;29;20055;-94
2022/10/25 12:00:52;;;;;;;9.90;2.63;;;;;;;24.12;33.10;99496.16;4909872;29;20125;-95
2022/10/25 12:03:46;;;;;;;9.32;3.00;;;;;;;24.26;32.94;99501.16;4935725;29;20098;-93
2022/10/25 12:06:36;;;;;;;11.15;3.03;;;;;;;24.21;33.26;99489.28;4934138;29;20102;-93
2022/10/25 12:09:12;;;;;;;12.82;2.72;;;;;;;24.18;33.12;99478.22;4934634;29;20024;-91
2022/10/25 12:11:49;;;;;;;11.30;2.75;;;;;;;24.30;33.42;99513.88;4919538;29;20023;-93
2022/10/25 12:14:47;;;;;;;10.48;3.10;;;;;;;24.24;33.18;99487.78;4913414;29;20035;-95
2022/10/25 12:17:42;;;;;;;12.43;3.13;;;;;;;24.14;33.48;99471.81;4944620;29;20056;-95
2022/10/25 12:20:39;;;;;;;;;;;;;;;;;;;;;
2022/10/25 12:27:07;;;;;;;;;;;;;;;;;;;;;
2022/10/25 12:29:59;;;;;;;11.82;3.22;;;;;;;24.35;33.01;99493.53;5013228;28;20063;-94
2022/10/25 12:46:21;;;;;;;11.10;3.67;;;;;;;24.26;33.30;99460.72;5091649;23;20049;-96
2022/10/25 12:49:08;;;;;;;10.18;3.10;;;;;;;24.40;32.67;99487.75;4946087;28;20421;-96
2022/10/25 12:52:01;;;;;;;10.32;2.78;;;;;;;24.45;32.76;99497.69;4951004;28;20020;-96
2022/10/25 12:55:08;;;;;;;9.93;3.28;;;;;;;24.49;32.09;99488.38;4964621;28;20022;-95
2022/10/25 12:58:25;;;;;;;8.77;3.03;;;;;;;24.51;32.12;99490.75;4963727;28;20576;-96
2022/10/25 13:02:09;;;;;;;6.50;2.67;;;;;;;24.42;32.43;99477.16;4910533;29;20035;-95
2022/10/25 13:08:22;;;;;;;9.27;2.53;;;;;;;24.31;32.21;99465.13;4934661;29;20059;-96
2022/10/25 13:11:47;;;;;;;10.87;2.53;;;;;;;24.24;32.86;99462.22;4993501;23;20058;-96
2022/10/25 13:14:34;;;;;;;10.13;3.38;;;;;;;24.40;32.73;99488.56;4903372;28;20292;-96
2022/10/25 13:17:17;;;;;;;9.48;2.55;;;;;;;24.34;32.79;99492.75;4967842;28;20033;-95
2022/10/25 13:20:24;;;;;;;9.32;2.65;;;;;;;24.31;32.63;99498.94;4977194;28;20031;-96
2022/10/25 13:23:00;;;;;;;7.75;2.58;;;;;;;24.10;33.31;99469.00;4969684;28;20062;-96
2022/10/25 13:25:47;;;;;;;13.15;3.05;;;;;;;24.19;33.16;99477.84;4971336;28;20085;-95
2022/10/25 13:28:13;;;;;;;7.50;2.92;;;;;;;24.20;33.18;99487.69;4966518;28;20038;-96
2022/10/25 13:30:46;;;;;;;10.30;2.80;;;;;;;24.07;33.59;99466.16;4967879;28;20030;-96
2022/10/25 13:33:23;;;;;;;7.63;3.13;;;;;;;24.15;33.45;99484.41;4953093;28;20054;-96
2022/10/25 13:35:48;;;;;;;10.60;3.05;;;;;;;24.16;33.63;99488.78;4970687;28;20129;-96
2022/10/25 13:38:24;;;;;;;8.10;2.90;;;;;;;24.15;34.02;99482.47;4969502;28;20034;-96
2022/10/25 13:41:10;;;;;;;6.57;2.65;;;;;;;24.17;33.44;99493.91;4970496;28;20014;-93